Lupo — HP9716 — position and weather

sailwx.info

Track history (hours):
 
Tides and Currents Weather Stations Pressure Air Temp Water Temp Dewpoint Dewpoint Depression Visibility Wind Speed Wind Dir Waves Ship Positions

Lupo

Last reported at 2018-Jun-23 06:00 UTC. Time now 2018-Jun-23 05:58 UTC.
Position N 09°23' W 079°53'.

Length 31 m; draft 4.8 m.

Type: Other ship. MMSI: 355893000.

Date/timePositionNaut miles runAvg speedWind from/ knotsBaromVisibWave heightAir tempDewpointWater temp
2018-Jun-23 06:00N 09°23' W 079°53'0 0.0
2018-Jun-23 05:30N 09°23' W 079°53'0 0.0
2018-Jun-23 05:00N 09°23' W 079°53'0 0.0
2018-Jun-23 04:30N 09°23' W 079°53'0 0.0
2018-Jun-23 04:00N 09°23' W 079°53'0 0.0
2018-Jun-23 03:30N 09°23' W 079°53'0 0.0
2018-Jun-23 03:00N 09°23' W 079°53'0 0.0
2018-Jun-23 02:30N 09°23' W 079°53'0 0.0
2018-Jun-23 02:00N 09°23' W 079°53'0 0.0
2018-Jun-23 01:30N 09°23' W 079°53'0 0.6
2018-Jun-23 00:59N 09°22' W 079°53'0 0.4
2018-Jun-23 00:29N 09°22' W 079°53'4 7.6
2018-Jun-23 00:00N 09°26' W 079°52'4 7.3
2018-Jun-22 23:30N 09°24' W 079°49'0 0.2
2018-Jun-22 22:58N 09°24' W 079°49'3 7.3
2018-Jun-22 22:30N 09°26' W 079°52'4 7.3
2018-Jun-22 22:00N 09°23' W 079°53'0 0.0
2018-Jun-22 21:30N 09°23' W 079°53'0 0.0
2018-Jun-22 21:00N 09°23' W 079°53'0 0.0
2018-Jun-22 20:30N 09°23' W 079°53'0 0.0
2018-Jun-22 20:00N 09°23' W 079°53'0 0.0
2018-Jun-22 19:30N 09°23' W 079°53'0 0.0
2018-Jun-22 19:00N 09°23' W 079°53'0 0.0
2018-Jun-22 18:30N 09°23' W 079°53'0 0.0
2018-Jun-22 18:00N 09°23' W 079°53'0 0.0
2018-Jun-22 17:28N 09°23' W 079°53'0 0.0
2018-Jun-22 17:00N 09°23' W 079°53'0 0.0
2018-Jun-22 16:30N 09°23' W 079°53'0 0.5
2018-Jun-22 16:01N 09°22' W 079°53'0 0.3
2018-Jun-22 15:30N 09°22' W 079°53'0 0.3
2018-Jun-22 15:00N 09°23' W 079°53'0 0.0
2018-Jun-22 14:30N 09°23' W 079°53'0 0.0
2018-Jun-22 13:58N 09°23' W 079°53'0 0.0
2018-Jun-22 13:30N 09°23' W 079°53'0 0.0
2018-Jun-22 13:00N 09°23' W 079°53'0 0.0
2018-Jun-22 12:30N 09°23' W 079°53'0 0.0
2018-Jun-22 12:00N 09°23' W 079°53'0 0.0
2018-Jun-22 11:30N 09°23' W 079°53'0 0.0
2018-Jun-22 11:00N 09°23' W 079°53'0 0.0
2018-Jun-22 10:30N 09°23' W 079°53'0 0.0
2018-Jun-22 10:00N 09°23' W 079°53'0 0.0
2018-Jun-22 09:30N 09°23' W 079°53'0 0.0
2018-Jun-22 09:00N 09°23' W 079°53'0 0.4
2018-Jun-22 08:31N 09°22' W 079°53'0 0.4
2018-Jun-22 08:00N 09°23' W 079°53'0 0.0
2018-Jun-22 07:30N 09°23' W 079°53'0 0.0
2018-Jun-22 07:00N 09°23' W 079°53'0 0.0
2018-Jun-22 06:30N 09°23' W 079°53'0 0.0
2018-Jun-22 06:00N 09°23' W 079°53'0 0.0
2018-Jun-22 05:30N 09°23' W 079°53'0 0.0
2018-Jun-22 05:00N 09°23' W 079°53'0 0.0
2018-Jun-22 04:30N 09°23' W 079°53'0 0.0
2018-Jun-22 04:00N 09°23' W 079°53'0 0.0
2018-Jun-22 03:09N 09°23' W 079°53'0 0.0
2018-Jun-22 03:00N 09°23' W 079°53'0 0.0
2018-Jun-22 02:30N 09°23' W 079°53'0 0.0
2018-Jun-22 02:00N 09°23' W 079°53'0 0.0
2018-Jun-22 01:30N 09°23' W 079°53'0 0.0
2018-Jun-22 01:00N 09°23' W 079°53'0 0.6
2018-Jun-22 00:30N 09°22' W 079°53'0 0.5
2018-Jun-22 00:00N 09°22' W 079°54'0 0.4
2018-Jun-21 23:30N 09°22' W 079°53'0 0.4
2018-Jun-21 23:00N 09°23' W 079°53'0 0.9
2018-Jun-21 22:30N 09°22' W 079°53'1 1.2
2018-Jun-21 22:00N 09°22' W 079°54'0 0.7
2018-Jun-21 21:30N 09°23' W 079°53'0 0.0
2018-Jun-21 21:00N 09°23' W 079°53'0 0.0
2018-Jun-21 20:30N 09°23' W 079°53'0 0.0
2018-Jun-21 20:00N 09°23' W 079°53'0 0.0
2018-Jun-21 19:30N 09°23' W 079°53'0 0.0
2018-Jun-21 19:00N 09°23' W 079°53'0 0.0
2018-Jun-21 18:30N 09°23' W 079°53'0 0.0
2018-Jun-21 17:59N 09°23' W 079°53'0 0.0
2018-Jun-21 17:30N 09°23' W 079°53'0 0.6
2018-Jun-21 17:00N 09°23' W 079°54'0 0.8
2018-Jun-21 16:30N 09°22' W 079°54'0 0.6
2018-Jun-21 16:01N 09°23' W 079°53'0 0.2
2018-Jun-21 15:30N 09°22' W 079°53'0 0.3
2018-Jun-21 15:00N 09°23' W 079°53'0 0.0
2018-Jun-21 14:30N 09°23' W 079°53'0 0.0
2018-Jun-21 14:00N 09°23' W 079°53'0 0.0
2018-Jun-21 13:30N 09°23' W 079°53'0 0.0
2018-Jun-21 13:00N 09°23' W 079°53'0 0.0
2018-Jun-21 12:30N 09°23' W 079°53'0 0.0
2018-Jun-21 11:59N 09°23' W 079°53'0 0.0
2018-Jun-21 11:30N 09°23' W 079°53'0 0.0
2018-Jun-21 10:59N 09°23' W 079°53'0 0.0
2018-Jun-21 10:30N 09°23' W 079°53'0 0.0
2018-Jun-21 10:00N 09°23' W 079°53'0 0.0
2018-Jun-21 09:30N 09°23' W 079°53'0 0.0
2018-Jun-21 09:00N 09°23' W 079°53'0 0.0
2018-Jun-21 08:30N 09°23' W 079°53'0 0.0
2018-Jun-21 08:00N 09°23' W 079°53'0 0.0
2018-Jun-21 07:30N 09°23' W 079°53'0 0.0
2018-Jun-21 07:00N 09°23' W 079°53'0 0.0
2018-Jun-21 06:29N 09°23' W 079°53'0 0.0
2018-Jun-21 06:00N 09°23' W 079°53'0 0.0
2018-Jun-21 05:28N 09°23' W 079°53'0 0.0
2018-Jun-21 05:00N 09°23' W 079°53'0 0.0
2018-Jun-21 04:30N 09°23' W 079°53'0 0.0
2018-Jun-21 04:00N 09°23' W 079°53'0 0.0
2018-Jun-21 03:30N 09°23' W 079°53'0 0.0
2018-Jun-21 03:00N 09°23' W 079°53'0 0.0
2018-Jun-21 02:30N 09°23' W 079°53'0 0.0
2018-Jun-21 02:00N 09°23' W 079°53'0 0.0
2018-Jun-21 01:30N 09°23' W 079°53'0 0.0
2018-Jun-21 01:00N 09°23' W 079°53'3 5.6
2018-Jun-21 00:30N 09°25' W 079°53'4 8.4
2018-Jun-21 00:00N 09°24' W 079°49'0 0.7
2018-Jun-20 23:30N 09°24' W 079°49'0 0.9
2018-Jun-20 22:57N 09°24' W 079°49'1 3.2
2018-Jun-20 22:30N 09°25' W 079°50'4 7.1
2018-Jun-20 22:00N 09°25' W 079°54'2 4.7
2018-Jun-20 21:30N 09°22' W 079°53'0 0.6
2018-Jun-20 21:00N 09°22' W 079°54'0 0.8
2018-Jun-20 20:30N 09°23' W 079°53'0 0.0
2018-Jun-20 20:00N 09°23' W 079°53'0 0.0
2018-Jun-20 19:30N 09°23' W 079°53'0 0.0
2018-Jun-20 19:00N 09°23' W 079°53'0 0.0
2018-Jun-20 18:30N 09°23' W 079°53'0 0.0
2018-Jun-20 18:00N 09°23' W 079°53'0 0.0
2018-Jun-20 17:30N 09°23' W 079°53'0 0.0
2018-Jun-20 17:00N 09°23' W 079°53'0 0.0
2018-Jun-20 16:30N 09°23' W 079°53'0 0.0
2018-Jun-20 16:00N 09°23' W 079°53'0 0.0
2018-Jun-20 15:30N 09°23' W 079°53'0 0.0
2018-Jun-20 15:00N 09°23' W 079°53'0 0.0
2018-Jun-20 14:30N 09°23' W 079°53'0 0.0
2018-Jun-20 14:00N 09°23' W 079°53'0 0.0
2018-Jun-20 13:30N 09°23' W 079°53'0 0.6
2018-Jun-20 13:00N 09°22' W 079°53'0 0.4
2018-Jun-20 12:31N 09°23' W 079°53'0 0.2
2018-Jun-20 12:00N 09°23' W 079°53'0 0.0
2018-Jun-20 11:30N 09°23' W 079°53'0 0.0
2018-Jun-20 11:00N 09°23' W 079°53'0 0.0
2018-Jun-20 10:30N 09°23' W 079°53'0 0.0
2018-Jun-20 10:00N 09°23' W 079°53'0 0.0
2018-Jun-20 09:30N 09°23' W 079°53'0 0.0
2018-Jun-20 09:00N 09°23' W 079°53'0 0.0
2018-Jun-20 08:30N 09°23' W 079°53'0 0.0
2018-Jun-20 07:59N 09°23' W 079°53'0 0.0
2018-Jun-20 07:30N 09°23' W 079°53'0 0.0
2018-Jun-20 07:00N 09°23' W 079°53'0 0.0
2018-Jun-20 06:30N 09°23' W 079°53'0 0.0
2018-Jun-20 06:00N 09°23' W 079°53'0 0.0
2018-Jun-20 05:30N 09°23' W 079°53'0 0.0
2018-Jun-20 05:00N 09°23' W 079°53'0 0.0
2018-Jun-20 04:30N 09°23' W 079°53'0 0.0
2018-Jun-20 04:00N 09°23' W 079°53'0 0.0
2018-Jun-20 03:30N 09°23' W 079°53'0 0.0
2018-Jun-20 03:00N 09°23' W 079°53'0 0.0
2018-Jun-20 02:30N 09°23' W 079°53'0 0.0
2018-Jun-20 02:00N 09°23' W 079°53'0 0.0
2018-Jun-20 01:30N 09°23' W 079°53'0 0.0
2018-Jun-20 01:00N 09°23' W 079°53'0 0.0
2018-Jun-20 00:30N 09°23' W 079°53'0 0.2
2018-Jun-20 00:00N 09°23' W 079°53'0 0.5
2018-Jun-19 23:30N 09°22' W 079°54'0 0.7
2018-Jun-19 23:00N 09°23' W 079°53'0 0.0
2018-Jun-19 22:30N 09°23' W 079°53'0 0.0
2018-Jun-19 22:00N 09°23' W 079°53'0 0.0
2018-Jun-19 21:30N 09°23' W 079°53'0 0.0
2018-Jun-19 21:00N 09°23' W 079°53'0 0.0
2018-Jun-19 20:30N 09°23' W 079°53'0 0.0
2018-Jun-19 20:00N 09°23' W 079°53'0 0.0
2018-Jun-19 19:30N 09°23' W 079°53'0 0.0
2018-Jun-19 19:00N 09°23' W 079°53'0 0.0
2018-Jun-19 18:30N 09°23' W 079°53'0 0.0
2018-Jun-19 17:59N 09°23' W 079°53'0 0.0
2018-Jun-19 17:30N 09°23' W 079°53'0 0.0
2018-Jun-19 17:00N 09°23' W 079°53'0 0.0
2018-Jun-19 16:30N 09°23' W 079°53'0 0.0
2018-Jun-19 16:00N 09°23' W 079°53'0 0.0
2018-Jun-19 15:30N 09°23' W 079°53'0 0.0
2018-Jun-19 15:00N 09°23' W 079°53'0 0.0
2018-Jun-19 14:30N 09°23' W 079°53'0 0.0
2018-Jun-19 14:00N 09°23' W 079°53'0 0.0
2018-Jun-19 13:30N 09°23' W 079°53'0 0.0
2018-Jun-19 13:00N 09°23' W 079°53'0 0.0
2018-Jun-19 12:30N 09°23' W 079°53'0 0.0
2018-Jun-19 12:00N 09°23' W 079°53'0 0.0
2018-Jun-19 11:30N 09°23' W 079°53'0 0.0
2018-Jun-19 11:00N 09°23' W 079°53'0 0.0
2018-Jun-19 10:30N 09°23' W 079°53'0 0.0
2018-Jun-19 10:00N 09°23' W 079°53'0 0.0
2018-Jun-19 09:30N 09°23' W 079°53'0 0.0
2018-Jun-19 09:00N 09°23' W 079°53'0 0.0
2018-Jun-19 08:30N 09°23' W 079°53'0 0.0
2018-Jun-19 08:00N 09°23' W 079°53'0 0.0
2018-Jun-19 07:30N 09°23' W 079°53'0 0.0
2018-Jun-19 07:00N 09°23' W 079°53'0 0.0
2018-Jun-19 06:30N 09°23' W 079°53'0 0.0
2018-Jun-19 06:00N 09°23' W 079°53'0 0.0
2018-Jun-19 05:30N 09°23' W 079°53'0 0.0
2018-Jun-19 05:00N 09°23' W 079°53'0 0.0
2018-Jun-19 04:30N 09°23' W 079°53'0 0.0
2018-Jun-19 03:59N 09°23' W 079°53'0 0.0
2018-Jun-19 03:30N 09°23' W 079°53'0 0.0
2018-Jun-19 03:00N 09°23' W 079°53'0 0.0
2018-Jun-19 02:30N 09°23' W 079°53'0 0.0
2018-Jun-19 02:00N 09°23' W 079°53'0 0.0
2018-Jun-19 01:30N 09°23' W 079°53'0 0.0
2018-Jun-19 01:00N 09°23' W 079°53'0 0.0
2018-Jun-19 00:30N 09°23' W 079°53'0 0.0
2018-Jun-19 00:00N 09°23' W 079°53'0 0.0
2018-Jun-18 23:30N 09°23' W 079°53'0 0.0
2018-Jun-18 23:00N 09°23' W 079°53'0 0.0
2018-Jun-18 22:30N 09°23' W 079°53'0 0.0
2018-Jun-18 22:00N 09°23' W 079°53'0 0.2
2018-Jun-18 21:30N 09°23' W 079°53'0 0.2
2018-Jun-18 21:00N 09°23' W 079°53'0 0.0
2018-Jun-18 20:30N 09°23' W 079°53'0 0.0
2018-Jun-18 20:00N 09°23' W 079°53'0 0.0
2018-Jun-18 19:30N 09°23' W 079°53'0 0.0
2018-Jun-18 19:00N 09°23' W 079°53'0 0.0
2018-Jun-18 18:30N 09°23' W 079°53'0 0.0
2018-Jun-18 18:00N 09°23' W 079°53'0 0.0
2018-Jun-18 17:30N 09°23' W 079°53'0 0.0
2018-Jun-18 17:00N 09°23' W 079°53'0 0.0
2018-Jun-18 16:30N 09°23' W 079°53'0 0.0
2018-Jun-18 16:00N 09°23' W 079°53'0 0.0
2018-Jun-18 15:30N 09°23' W 079°53'0 0.0
2018-Jun-18 15:00N 09°23' W 079°53'0 0.0
2018-Jun-18 14:30N 09°23' W 079°53'0 0.4
2018-Jun-18 14:00N 09°22' W 079°53'0 0.4
2018-Jun-18 13:30N 09°23' W 079°53'0 0.0
2018-Jun-18 13:00N 09°23' W 079°53'0 0.0
2018-Jun-18 12:29N 09°23' W 079°53'0 0.0
2018-Jun-18 12:00N 09°23' W 079°53'0 0.9
2018-Jun-18 11:30N 09°22' W 079°53'0 1.0
2018-Jun-18 11:00N 09°23' W 079°53'0 0.0
2018-Jun-18 10:30N 09°23' W 079°53'0 0.0
2018-Jun-18 10:00N 09°23' W 079°53'0 0.0
2018-Jun-18 09:30N 09°23' W 079°53'0 0.0
2018-Jun-18 09:00N 09°23' W 079°53'0 0.0
2018-Jun-18 08:29N 09°23' W 079°53'0 0.0
2018-Jun-18 08:00N 09°23' W 079°53'0 0.0
2018-Jun-18 07:30N 09°23' W 079°53'0 0.0
2018-Jun-18 07:00N 09°23' W 079°53'0 0.0
2018-Jun-18 06:30N 09°23' W 079°53'0 0.0
2018-Jun-18 06:00N 09°23' W 079°53'0 0.0
2018-Jun-18 05:30N 09°23' W 079°53'0 0.0
2018-Jun-18 05:00N 09°23' W 079°53'0 0.0
2018-Jun-18 04:30N 09°23' W 079°53'4 2.4
2018-Jun-18 02:39N 09°24' W 079°49'1 3.2
2018-Jun-18 02:21N 09°25' W 079°50'0 0.3
2018-Jun-18 01:48N 09°25' W 079°50'3 8.6
2018-Jun-18 01:30N 09°25' W 079°52'3 5.9
2018-Jun-18 01:00N 09°23' W 079°53'0 0.0
2018-Jun-18 00:30N 09°23' W 079°53'0 0.0
2018-Jun-18 00:00N 09°23' W 079°53'0 0.0
2018-Jun-17 23:30N 09°23' W 079°53'0 0.2
2018-Jun-17 23:00N 09°23' W 079°53'0 0.5
2018-Jun-17 22:30N 09°22' W 079°54'0 0.6
2018-Jun-17 22:00N 09°23' W 079°53'0 0.0
2018-Jun-17 21:30N 09°23' W 079°53'0 0.0
2018-Jun-17 21:00N 09°23' W 079°53'0 0.0
2018-Jun-17 20:30N 09°23' W 079°53'0 0.0
2018-Jun-17 20:00N 09°23' W 079°53'0 0.0
2018-Jun-17 19:30N 09°23' W 079°53'0 0.0
2018-Jun-17 19:00N 09°23' W 079°53'0 0.5
2018-Jun-17 18:30N 09°22' W 079°53'0 0.5
2018-Jun-17 18:00N 09°23' W 079°53'1 1.3
2018-Jun-17 17:30N 09°23' W 079°54'5 2.9
2018-Jun-17 15:54N 09°24' W 079°49'3 8.4
2018-Jun-17 15:30N 09°26' W 079°52'3 6.4
2018-Jun-17 15:00N 09°23' W 079°53'0 0.0
2018-Jun-17 14:30N 09°23' W 079°53'0 0.0
2018-Jun-17 14:00N 09°23' W 079°53'0 0.0
2018-Jun-17 13:30N 09°23' W 079°53'0 0.0
2018-Jun-17 13:00N 09°23' W 079°53'0 0.0
2018-Jun-17 12:30N 09°23' W 079°53'0 0.0
2018-Jun-17 11:59N 09°23' W 079°53'0 0.0
2018-Jun-17 11:30N 09°23' W 079°53'0 0.0
2018-Jun-17 11:00N 09°23' W 079°53'0 0.0
2018-Jun-17 10:30N 09°23' W 079°53'0 0.0
2018-Jun-17 10:00N 09°23' W 079°53'0 0.0
2018-Jun-17 09:30N 09°23' W 079°53'0 0.0
2018-Jun-17 09:00N 09°23' W 079°53'0 0.0
2018-Jun-17 08:30N 09°23' W 079°53'0 0.0
2018-Jun-17 08:00N 09°23' W 079°53'0 0.0
2018-Jun-17 07:30N 09°23' W 079°53'0 0.0
2018-Jun-17 06:59N 09°23' W 079°53'0 0.0
2018-Jun-17 06:30N 09°23' W 079°53'0 0.0
2018-Jun-17 06:00N 09°23' W 079°53'0 0.0
2018-Jun-17 05:30N 09°23' W 079°53'0 0.0
2018-Jun-17 05:00N 09°23' W 079°53'0 0.0
2018-Jun-17 04:30N 09°23' W 079°53'0 0.0
2018-Jun-17 04:00N 09°23' W 079°53'0 0.0
2018-Jun-17 03:30N 09°23' W 079°53'0 0.0
2018-Jun-17 03:00N 09°23' W 079°53'1 1.0
2018-Jun-17 02:29N 09°22' W 079°53'1 1.1
2018-Jun-17 02:00N 09°23' W 079°53'0 0.0
2018-Jun-17 01:30N 09°23' W 079°53'0 0.0
2018-Jun-17 01:00N 09°23' W 079°53'0 0.0
2018-Jun-17 00:30N 09°23' W 079°53'0 0.0
2018-Jun-17 00:00N 09°23' W 079°53'0 0.0
2018-Jun-16 23:30N 09°23' W 079°53'0 0.0
2018-Jun-16 23:00N 09°23' W 079°53'0 0.0
2018-Jun-16 22:30N 09°23' W 079°53'0 0.0
2018-Jun-16 22:00N 09°23' W 079°53'0 0.0
2018-Jun-16 21:30N 09°23' W 079°53'0 0.0
2018-Jun-16 21:00N 09°23' W 079°53'0 0.0
2018-Jun-16 20:30N 09°23' W 079°53'0 0.0
2018-Jun-16 19:59N 09°23' W 079°53'0 0.0
2018-Jun-16 19:30N 09°23' W 079°53'0 0.0
2018-Jun-16 19:00N 09°23' W 079°53'0 0.0
2018-Jun-16 18:30N 09°23' W 079°53'0 0.0
2018-Jun-16 18:00N 09°23' W 079°53'0 0.0
2018-Jun-16 17:30N 09°23' W 079°53'0 0.0
2018-Jun-16 17:00N 09°23' W 079°53'0 0.0
2018-Jun-16 16:30N 09°23' W 079°53'0 0.0
2018-Jun-16 16:00N 09°23' W 079°53'0 0.0
2018-Jun-16 15:30N 09°23' W 079°53'0 0.0
2018-Jun-16 15:00N 09°23' W 079°53'0 0.0
2018-Jun-16 14:30N 09°23' W 079°53'2 3.6
2018-Jun-16 14:00N 09°24' W 079°54'4 8.0
2018-Jun-16 13:30N 09°25' W 079°49'1 2.1
2018-Jun-16 12:59N 09°24' W 079°49'0 0.0
2018-Jun-16 12:24N 09°24' W 079°49'0 0.0
2018-Jun-16 11:57N 09°24' W 079°49'1 1.3
2018-Jun-16 11:30N 09°24' W 079°49'1 2.6
2018-Jun-16 11:00N 09°25' W 079°50'0 0.1
2018-Jun-16 10:31N 09°25' W 079°50'3 5.2
2018-Jun-16 10:00N 09°25' W 079°53'3 5.7
2018-Jun-16 09:30N 09°23' W 079°53'0 0.0
2018-Jun-16 09:00N 09°23' W 079°53'0 0.0
2018-Jun-16 08:30N 09°23' W 079°53'0 0.0
2018-Jun-16 08:00N 09°23' W 079°53'0 0.0
2018-Jun-16 07:30N 09°23' W 079°53'0 0.0
2018-Jun-16 07:00N 09°23' W 079°53'0 0.0
2018-Jun-16 06:30N 09°23' W 079°53'0 0.0
2018-Jun-16 06:00N 09°23' W 079°53'0 0.0
2018-Jun-16 05:30N 09°23' W 079°53'0 0.6
2018-Jun-16 04:59N 09°22' W 079°53'0 0.6
2018-Jun-16 04:28N 09°23' W 079°53'0 0.0
2018-Jun-16 03:58N 09°23' W 079°53'0 0.0
2018-Jun-16 03:28N 09°23' W 079°53'0 0.0
2018-Jun-16 02:58N 09°23' W 079°53'0 0.0
2018-Jun-16 02:28N 09°23' W 079°53'0 0.0
2018-Jun-16 01:58N 09°23' W 079°53'0 0.0
2018-Jun-16 01:28N 09°23' W 079°53'0 0.0
2018-Jun-16 00:58N 09°23' W 079°53'0 0.0
2018-Jun-16 00:28N 09°23' W 079°53'0 0.0
2018-Jun-15 23:58N 09°23' W 079°53'0 0.0
2018-Jun-15 23:28N 09°23' W 079°53'0 0.0
2018-Jun-15 22:58N 09°23' W 079°53'0 0.0
2018-Jun-15 22:28N 09°23' W 079°53'0 0.0
2018-Jun-15 21:58N 09°23' W 079°53'0 0.0
2018-Jun-15 21:28N 09°23' W 079°53'0 0.0
2018-Jun-15 20:58N 09°23' W 079°53'0 0.0
2018-Jun-15 20:28N 09°23' W 079°53'0 0.0
2018-Jun-15 19:58N 09°23' W 079°53'0 0.0
2018-Jun-15 19:28N 09°23' W 079°53'0 0.0
2018-Jun-15 18:58N 09°23' W 079°53'0 0.0
2018-Jun-15 18:28N 09°23' W 079°53'0 0.0
2018-Jun-15 17:58N 09°23' W 079°53'0 0.0
2018-Jun-15 17:28N 09°23' W 079°53'0 0.0
2018-Jun-15 16:58N 09°23' W 079°53'0 0.0
2018-Jun-15 16:28N 09°23' W 079°53'0 0.0
2018-Jun-15 15:58N 09°23' W 079°53'0 0.0
2018-Jun-15 15:28N 09°23' W 079°53'0 0.0
2018-Jun-15 14:58N 09°23' W 079°53'0 0.0
2018-Jun-15 14:28N 09°23' W 079°53'0 0.0
2018-Jun-15 13:58N 09°23' W 079°53'0 0.0
2018-Jun-15 13:28N 09°23' W 079°53'0 0.0
2018-Jun-15 12:58N 09°23' W 079°53'0 0.0
2018-Jun-15 12:28N 09°23' W 079°53'0 0.0
2018-Jun-15 11:58N 09°23' W 079°53'0 0.0
2018-Jun-15 11:28N 09°23' W 079°53'0 0.0
2018-Jun-15 10:58N 09°23' W 079°53'0 0.0
2018-Jun-15 10:28N 09°23' W 079°53'0 0.0
2018-Jun-15 09:58N 09°23' W 079°53'0 0.0
2018-Jun-15 09:28N 09°23' W 079°53'0 0.0
2018-Jun-15 08:58N 09°23' W 079°53'0 0.0
2018-Jun-15 08:28N 09°23' W 079°53'0 0.0
2018-Jun-15 07:58N 09°23' W 079°53'0 0.0
2018-Jun-15 07:28N 09°23' W 079°53'0 0.0
2018-Jun-15 06:58N 09°23' W 079°53'0 0.0
2018-Jun-15 06:25N 09°23' W 079°53'0 0.0
2018-Jun-15 05:58N 09°23' W 079°53'0 0.0
2018-Jun-15 05:28N 09°23' W 079°53'0 0.0
2018-Jun-15 04:58N 09°23' W 079°53'0 0.0
2018-Jun-15 04:28N 09°23' W 079°53'0 0.0
2018-Jun-15 03:58N 09°23' W 079°53'0 0.0
2018-Jun-15 03:26N 09°23' W 079°53'3 6.8
2018-Jun-15 03:00N 09°25' W 079°53'4 2.9
2018-Jun-15 01:42N 09°24' W 079°49'1 5.2
2018-Jun-15 01:25N 09°25' W 079°50'0 0.4
2018-Jun-15 00:57N 09°25' W 079°50'0 0.2
2018-Jun-15 00:28N 09°25' W 079°50'1 2.7
2018-Jun-15 00:00N 09°25' W 079°51'4 7.9
2018-Jun-14 23:30N 09°23' W 079°54'0 0.5
2018-Jun-14 22:58N 09°23' W 079°53'0 0.0
2018-Jun-14 22:28N 09°23' W 079°53'0 0.0
2018-Jun-14 21:58N 09°23' W 079°53'0 0.3
2018-Jun-14 21:30N 09°22' W 079°53'0 0.9
2018-Jun-14 21:00N 09°23' W 079°54'0 0.7
2018-Jun-14 20:30N 09°23' W 079°53'0 0.0
2018-Jun-14 20:00N 09°23' W 079°53'0 0.0
2018-Jun-14 19:30N 09°23' W 079°53'0 0.0
2018-Jun-14 19:00N 09°23' W 079°53'0 0.0
2018-Jun-14 18:31N 09°23' W 079°53'4 7.3
2018-Jun-14 18:00N 09°26' W 079°51'3 5.0
2018-Jun-14 17:25N 09°24' W 079°49'0 0.9
2018-Jun-14 16:59N 09°24' W 079°49'4 7.6
2018-Jun-14 16:30N 09°25' W 079°53'3 5.2
2018-Jun-14 15:58N 09°23' W 079°53'0 0.7
2018-Jun-14 15:28N 09°22' W 079°54'0 0.4
2018-Jun-14 14:59N 09°22' W 079°53'0 0.4
2018-Jun-14 14:29N 09°23' W 079°53'0 0.0
2018-Jun-14 13:59N 09°23' W 079°53'0 0.0
2018-Jun-14 13:29N 09°23' W 079°53'0 0.0
2018-Jun-14 12:58N 09°23' W 079°53'0 0.0
2018-Jun-14 12:29N 09°23' W 079°53'1 1.0
2018-Jun-14 11:59N 09°22' W 079°53'0 0.1
2018-Jun-14 11:29N 09°22' W 079°53'0 0.6
2018-Jun-14 11:00N 09°22' W 079°53'1 1.1
2018-Jun-14 10:30N 09°23' W 079°53'0 0.0
2018-Jun-14 10:00N 09°23' W 079°53'0 0.0
2018-Jun-14 09:30N 09°23' W 079°53'0 0.0
2018-Jun-14 09:00N 09°23' W 079°53'0 0.0
2018-Jun-14 08:30N 09°23' W 079°53'0 0.0
2018-Jun-14 08:00N 09°23' W 079°53'0 0.0
2018-Jun-14 07:30N 09°23' W 079°53'0 0.0
2018-Jun-14 07:00N 09°23' W 079°53'0 0.0
2018-Jun-14 06:30N 09°23' W 079°53'0 0.0
2018-Jun-14 06:00N 09°23' W 079°53'0 0.0
2018-Jun-14 05:30N 09°23' W 079°53'0 0.0
2018-Jun-14 05:00N 09°23' W 079°53'0 0.0
2018-Jun-14 04:30N 09°23' W 079°53'0 0.0
2018-Jun-14 04:00N 09°23' W 079°53'0 0.0
2018-Jun-14 03:30N 09°23' W 079°53'0 0.0
2018-Jun-14 03:00N 09°23' W 079°53'0 0.0
2018-Jun-14 02:30N 09°23' W 079°53'0 0.0
2018-Jun-14 02:00N 09°23' W 079°53'0 0.0
2018-Jun-14 01:30N 09°23' W 079°53'0 0.0
2018-Jun-14 01:00N 09°23' W 079°53'0 0.0
2018-Jun-14 00:30N 09°23' W 079°53'0 0.0
2018-Jun-14 00:00N 09°23' W 079°53'0 0.0
2018-Jun-13 23:30N 09°23' W 079°53'2 3.4
2018-Jun-13 23:00N 09°24' W 079°54'2 3.8
2018-Jun-13 22:30N 09°22' W 079°53'0 0.5
2018-Jun-13 22:00N 09°22' W 079°54'0 0.5
2018-Jun-13 21:30N 09°23' W 079°54'0 0.5
2018-Jun-13 21:00N 09°23' W 079°53'5 9.5
2018-Jun-13 20:30N 09°27' W 079°52'5 9.4
2018-Jun-13 20:01N 09°23' W 079°54'1 2.3
2018-Jun-13 19:30N 09°22' W 079°54'0 0.0
2018-Jun-13 19:00N 09°22' W 079°54'0 0.0
2018-Jun-13 18:30N 09°22' W 079°54'0 0.0
2018-Jun-13 18:00N 09°22' W 079°54'0 0.0
2018-Jun-13 17:30N 09°22' W 079°54'0 0.0
2018-Jun-13 17:00N 09°22' W 079°54'1 1.8
2018-Jun-13 16:30N 09°23' W 079°54'0 0.2
2018-Jun-13 15:58N 09°23' W 079°53'0 0.0
2018-Jun-13 15:28N 09°23' W 079°53'0 0.0
2018-Jun-13 14:58N 09°23' W 079°53'0 0.0
2018-Jun-13 14:28N 09°23' W 079°53'0 0.0
2018-Jun-13 13:58N 09°23' W 079°53'0 0.6
2018-Jun-13 13:30N 09°23' W 079°54'0 0.5
2018-Jun-13 12:58N 09°23' W 079°53'0 0.0
2018-Jun-13 12:28N 09°23' W 079°53'0 0.0
2018-Jun-13 11:58N 09°23' W 079°53'0 0.0
2018-Jun-13 11:28N 09°23' W 079°53'0 0.0
2018-Jun-13 10:58N 09°23' W 079°53'0 0.0
2018-Jun-13 10:28N 09°23' W 079°53'0 0.0
2018-Jun-13 09:58N 09°23' W 079°53'0 0.0
2018-Jun-13 09:28N 09°23' W 079°53'0 0.0
2018-Jun-13 08:58N 09°23' W 079°53'0 0.0
2018-Jun-13 08:28N 09°23' W 079°53'0 0.0
2018-Jun-13 07:58N 09°23' W 079°53'0 0.0
2018-Jun-13 07:28N 09°23' W 079°53'0 0.0
2018-Jun-13 06:58N 09°23' W 079°53'0 0.0
2018-Jun-13 06:28N 09°23' W 079°53'  
Track history (hours):
 
Tides and Currents Weather Stations Pressure Air Temp Water Temp Dewpoint Dewpoint Depression Visibility Wind Speed Wind Dir Waves Ship Positions

Lupo

Last reported at 2018-Jun-23 06:00 UTC. Time now 2018-Jun-23 05:58 UTC.
Position N 09°23' W 079°53'.

Length 31 m; draft 4.8 m.

Type: Other ship. MMSI: 355893000.

Date/timePositionNaut miles runAvg speedWind from/ knotsBaromVisibWave heightAir tempDewpointWater temp
2018-Jun-23 06:00N 09°23' W 079°53'0 0.0
2018-Jun-23 05:30N 09°23' W 079°53'0 0.0
2018-Jun-23 05:00N 09°23' W 079°53'0 0.0
2018-Jun-23 04:30N 09°23' W 079°53'0 0.0
2018-Jun-23 04:00N 09°23' W 079°53'0 0.0
2018-Jun-23 03:30N 09°23' W 079°53'0 0.0
2018-Jun-23 03:00N 09°23' W 079°53'0 0.0
2018-Jun-23 02:30N 09°23' W 079°53'0 0.0
2018-Jun-23 02:00N 09°23' W 079°53'0 0.0
2018-Jun-23 01:30N 09°23' W 079°53'0 0.6
2018-Jun-23 00:59N 09°22' W 079°53'0 0.4
2018-Jun-23 00:29N 09°22' W 079°53'4 7.6
2018-Jun-23 00:00N 09°26' W 079°52'4 7.3
2018-Jun-22 23:30N 09°24' W 079°49'0 0.2
2018-Jun-22 22:58N 09°24' W 079°49'3 7.3
2018-Jun-22 22:30N 09°26' W 079°52'4 7.3
2018-Jun-22 22:00N 09°23' W 079°53'0 0.0
2018-Jun-22 21:30N 09°23' W 079°53'0 0.0
2018-Jun-22 21:00N 09°23' W 079°53'0 0.0
2018-Jun-22 20:30N 09°23' W 079°53'0 0.0
2018-Jun-22 20:00N 09°23' W 079°53'0 0.0
2018-Jun-22 19:30N 09°23' W 079°53'0 0.0
2018-Jun-22 19:00N 09°23' W 079°53'0 0.0
2018-Jun-22 18:30N 09°23' W 079°53'0 0.0
2018-Jun-22 18:00N 09°23' W 079°53'0 0.0
2018-Jun-22 17:28N 09°23' W 079°53'0 0.0
2018-Jun-22 17:00N 09°23' W 079°53'0 0.0
2018-Jun-22 16:30N 09°23' W 079°53'0 0.5
2018-Jun-22 16:01N 09°22' W 079°53'0 0.3
2018-Jun-22 15:30N 09°22' W 079°53'0 0.3
2018-Jun-22 15:00N 09°23' W 079°53'0 0.0
2018-Jun-22 14:30N 09°23' W 079°53'0 0.0
2018-Jun-22 13:58N 09°23' W 079°53'0 0.0
2018-Jun-22 13:30N 09°23' W 079°53'0 0.0
2018-Jun-22 13:00N 09°23' W 079°53'0 0.0
2018-Jun-22 12:30N 09°23' W 079°53'0 0.0
2018-Jun-22 12:00N 09°23' W 079°53'0 0.0
2018-Jun-22 11:30N 09°23' W 079°53'0 0.0
2018-Jun-22 11:00N 09°23' W 079°53'0 0.0
2018-Jun-22 10:30N 09°23' W 079°53'0 0.0
2018-Jun-22 10:00N 09°23' W 079°53'0 0.0
2018-Jun-22 09:30N 09°23' W 079°53'0 0.0
2018-Jun-22 09:00N 09°23' W 079°53'0 0.4
2018-Jun-22 08:31N 09°22' W 079°53'0 0.4
2018-Jun-22 08:00N 09°23' W 079°53'0 0.0
2018-Jun-22 07:30N 09°23' W 079°53'0 0.0
2018-Jun-22 07:00N 09°23' W 079°53'0 0.0
2018-Jun-22 06:30N 09°23' W 079°53'0 0.0
2018-Jun-22 06:00N 09°23' W 079°53'0 0.0
2018-Jun-22 05:30N 09°23' W 079°53'0 0.0
2018-Jun-22 05:00N 09°23' W 079°53'0 0.0
2018-Jun-22 04:30N 09°23' W 079°53'0 0.0
2018-Jun-22 04:00N 09°23' W 079°53'0 0.0
2018-Jun-22 03:09N 09°23' W 079°53'0 0.0
2018-Jun-22 03:00N 09°23' W 079°53'0 0.0
2018-Jun-22 02:30N 09°23' W 079°53'0 0.0
2018-Jun-22 02:00N 09°23' W 079°53'0 0.0
2018-Jun-22 01:30N 09°23' W 079°53'0 0.0
2018-Jun-22 01:00N 09°23' W 079°53'0 0.6
2018-Jun-22 00:30N 09°22' W 079°53'0 0.5
2018-Jun-22 00:00N 09°22' W 079°54'0 0.4
2018-Jun-21 23:30N 09°22' W 079°53'0 0.4
2018-Jun-21 23:00N 09°23' W 079°53'0 0.9
2018-Jun-21 22:30N 09°22' W 079°53'1 1.2
2018-Jun-21 22:00N 09°22' W 079°54'0 0.7
2018-Jun-21 21:30N 09°23' W 079°53'0 0.0
2018-Jun-21 21:00N 09°23' W 079°53'0 0.0
2018-Jun-21 20:30N 09°23' W 079°53'0 0.0
2018-Jun-21 20:00N 09°23' W 079°53'0 0.0
2018-Jun-21 19:30N 09°23' W 079°53'0 0.0
2018-Jun-21 19:00N 09°23' W 079°53'0 0.0
2018-Jun-21 18:30N 09°23' W 079°53'0 0.0
2018-Jun-21 17:59N 09°23' W 079°53'0 0.0
2018-Jun-21 17:30N 09°23' W 079°53'0 0.6
2018-Jun-21 17:00N 09°23' W 079°54'0 0.8
2018-Jun-21 16:30N 09°22' W 079°54'0 0.6
2018-Jun-21 16:01N 09°23' W 079°53'0 0.2
2018-Jun-21 15:30N 09°22' W 079°53'0 0.3
2018-Jun-21 15:00N 09°23' W 079°53'0 0.0
2018-Jun-21 14:30N 09°23' W 079°53'0 0.0
2018-Jun-21 14:00N 09°23' W 079°53'0 0.0
2018-Jun-21 13:30N 09°23' W 079°53'0 0.0
2018-Jun-21 13:00N 09°23' W 079°53'0 0.0
2018-Jun-21 12:30N 09°23' W 079°53'0 0.0
2018-Jun-21 11:59N 09°23' W 079°53'0 0.0
2018-Jun-21 11:30N 09°23' W 079°53'0 0.0
2018-Jun-21 10:59N 09°23' W 079°53'0 0.0
2018-Jun-21 10:30N 09°23' W 079°53'0 0.0
2018-Jun-21 10:00N 09°23' W 079°53'0 0.0
2018-Jun-21 09:30N 09°23' W 079°53'0 0.0
2018-Jun-21 09:00N 09°23' W 079°53'0 0.0
2018-Jun-21 08:30N 09°23' W 079°53'0 0.0
2018-Jun-21 08:00N 09°23' W 079°53'0 0.0
2018-Jun-21 07:30N 09°23' W 079°53'0 0.0
2018-Jun-21 07:00N 09°23' W 079°53'0 0.0
2018-Jun-21 06:29N 09°23' W 079°53'0 0.0
2018-Jun-21 06:00N 09°23' W 079°53'0 0.0
2018-Jun-21 05:28N 09°23' W 079°53'0 0.0
2018-Jun-21 05:00N 09°23' W 079°53'0 0.0
2018-Jun-21 04:30N 09°23' W 079°53'0 0.0
2018-Jun-21 04:00N 09°23' W 079°53'0 0.0
2018-Jun-21 03:30N 09°23' W 079°53'0 0.0
2018-Jun-21 03:00N 09°23' W 079°53'0 0.0
2018-Jun-21 02:30N 09°23' W 079°53'0 0.0
2018-Jun-21 02:00N 09°23' W 079°53'0 0.0
2018-Jun-21 01:30N 09°23' W 079°53'0 0.0
2018-Jun-21 01:00N 09°23' W 079°53'3 5.6
2018-Jun-21 00:30N 09°25' W 079°53'4 8.4
2018-Jun-21 00:00N 09°24' W 079°49'0 0.7
2018-Jun-20 23:30N 09°24' W 079°49'0 0.9
2018-Jun-20 22:57N 09°24' W 079°49'1 3.2
2018-Jun-20 22:30N 09°25' W 079°50'4 7.1
2018-Jun-20 22:00N 09°25' W 079°54'2 4.7
2018-Jun-20 21:30N 09°22' W 079°53'0 0.6
2018-Jun-20 21:00N 09°22' W 079°54'0 0.8
2018-Jun-20 20:30N 09°23' W 079°53'0 0.0
2018-Jun-20 20:00N 09°23' W 079°53'0 0.0
2018-Jun-20 19:30N 09°23' W 079°53'0 0.0
2018-Jun-20 19:00N 09°23' W 079°53'0 0.0
2018-Jun-20 18:30N 09°23' W 079°53'0 0.0
2018-Jun-20 18:00N 09°23' W 079°53'0 0.0
2018-Jun-20 17:30N 09°23' W 079°53'0 0.0
2018-Jun-20 17:00N 09°23' W 079°53'0 0.0
2018-Jun-20 16:30N 09°23' W 079°53'0 0.0
2018-Jun-20 16:00N 09°23' W 079°53'0 0.0
2018-Jun-20 15:30N 09°23' W 079°53'0 0.0
2018-Jun-20 15:00N 09°23' W 079°53'0 0.0
2018-Jun-20 14:30N 09°23' W 079°53'0 0.0
2018-Jun-20 14:00N 09°23' W 079°53'0 0.0
2018-Jun-20 13:30N 09°23' W 079°53'0 0.6
2018-Jun-20 13:00N 09°22' W 079°53'0 0.4
2018-Jun-20 12:31N 09°23' W 079°53'0 0.2
2018-Jun-20 12:00N 09°23' W 079°53'0 0.0
2018-Jun-20 11:30N 09°23' W 079°53'0 0.0
2018-Jun-20 11:00N 09°23' W 079°53'0 0.0
2018-Jun-20 10:30N 09°23' W 079°53'0 0.0
2018-Jun-20 10:00N 09°23' W 079°53'0 0.0
2018-Jun-20 09:30N 09°23' W 079°53'0 0.0
2018-Jun-20 09:00N 09°23' W 079°53'0 0.0
2018-Jun-20 08:30N 09°23' W 079°53'0 0.0
2018-Jun-20 07:59N 09°23' W 079°53'0 0.0
2018-Jun-20 07:30N 09°23' W 079°53'0 0.0
2018-Jun-20 07:00N 09°23' W 079°53'0 0.0
2018-Jun-20 06:30N 09°23' W 079°53'0 0.0
2018-Jun-20 06:00N 09°23' W 079°53'0 0.0
2018-Jun-20 05:30N 09°23' W 079°53'0 0.0
2018-Jun-20 05:00N 09°23' W 079°53'0 0.0
2018-Jun-20 04:30N 09°23' W 079°53'0 0.0
2018-Jun-20 04:00N 09°23' W 079°53'0 0.0
2018-Jun-20 03:30N 09°23' W 079°53'0 0.0
2018-Jun-20 03:00N 09°23' W 079°53'0 0.0
2018-Jun-20 02:30N 09°23' W 079°53'0 0.0
2018-Jun-20 02:00N 09°23' W 079°53'0 0.0
2018-Jun-20 01:30N 09°23' W 079°53'0 0.0
2018-Jun-20 01:00N 09°23' W 079°53'0 0.0
2018-Jun-20 00:30N 09°23' W 079°53'0 0.2
2018-Jun-20 00:00N 09°23' W 079°53'0 0.5
2018-Jun-19 23:30N 09°22' W 079°54'0 0.7
2018-Jun-19 23:00N 09°23' W 079°53'0 0.0
2018-Jun-19 22:30N 09°23' W 079°53'0 0.0
2018-Jun-19 22:00N 09°23' W 079°53'0 0.0
2018-Jun-19 21:30N 09°23' W 079°53'0 0.0
2018-Jun-19 21:00N 09°23' W 079°53'0 0.0
2018-Jun-19 20:30N 09°23' W 079°53'0 0.0
2018-Jun-19 20:00N 09°23' W 079°53'0 0.0
2018-Jun-19 19:30N 09°23' W 079°53'0 0.0
2018-Jun-19 19:00N 09°23' W 079°53'0 0.0
2018-Jun-19 18:30N 09°23' W 079°53'0 0.0
2018-Jun-19 17:59N 09°23' W 079°53'0 0.0
2018-Jun-19 17:30N 09°23' W 079°53'0 0.0
2018-Jun-19 17:00N 09°23' W 079°53'0 0.0
2018-Jun-19 16:30N 09°23' W 079°53'0 0.0
2018-Jun-19 16:00N 09°23' W 079°53'0 0.0
2018-Jun-19 15:30N 09°23' W 079°53'0 0.0
2018-Jun-19 15:00N 09°23' W 079°53'0 0.0
2018-Jun-19 14:30N 09°23' W 079°53'0 0.0
2018-Jun-19 14:00N 09°23' W 079°53'0 0.0
2018-Jun-19 13:30N 09°23' W 079°53'0 0.0
2018-Jun-19 13:00N 09°23' W 079°53'0 0.0
2018-Jun-19 12:30N 09°23' W 079°53'0 0.0
2018-Jun-19 12:00N 09°23' W 079°53'0 0.0
2018-Jun-19 11:30N 09°23' W 079°53'0 0.0
2018-Jun-19 11:00N 09°23' W 079°53'0 0.0
2018-Jun-19 10:30N 09°23' W 079°53'0 0.0
2018-Jun-19 10:00N 09°23' W 079°53'0 0.0
2018-Jun-19 09:30N 09°23' W 079°53'0 0.0
2018-Jun-19 09:00N 09°23' W 079°53'0 0.0
2018-Jun-19 08:30N 09°23' W 079°53'0 0.0
2018-Jun-19 08:00N 09°23' W 079°53'0 0.0
2018-Jun-19 07:30N 09°23' W 079°53'0 0.0
2018-Jun-19 07:00N 09°23' W 079°53'0 0.0
2018-Jun-19 06:30N 09°23' W 079°53'0 0.0
2018-Jun-19 06:00N 09°23' W 079°53'0 0.0
2018-Jun-19 05:30N 09°23' W 079°53'0 0.0
2018-Jun-19 05:00N 09°23' W 079°53'0 0.0
2018-Jun-19 04:30N 09°23' W 079°53'0 0.0
2018-Jun-19 03:59N 09°23' W 079°53'0 0.0
2018-Jun-19 03:30N 09°23' W 079°53'0 0.0
2018-Jun-19 03:00N 09°23' W 079°53'0 0.0
2018-Jun-19 02:30N 09°23' W 079°53'0 0.0
2018-Jun-19 02:00N 09°23' W 079°53'0 0.0
2018-Jun-19 01:30N 09°23' W 079°53'0 0.0
2018-Jun-19 01:00N 09°23' W 079°53'0 0.0
2018-Jun-19 00:30N 09°23' W 079°53'0 0.0
2018-Jun-19 00:00N 09°23' W 079°53'0 0.0
2018-Jun-18 23:30N 09°23' W 079°53'0 0.0
2018-Jun-18 23:00N 09°23' W 079°53'0 0.0
2018-Jun-18 22:30N 09°23' W 079°53'0 0.0
2018-Jun-18 22:00N 09°23' W 079°53'0 0.2
2018-Jun-18 21:30N 09°23' W 079°53'0 0.2
2018-Jun-18 21:00N 09°23' W 079°53'0 0.0
2018-Jun-18 20:30N 09°23' W 079°53'0 0.0
2018-Jun-18 20:00N 09°23' W 079°53'0 0.0
2018-Jun-18 19:30N 09°23' W 079°53'0 0.0
2018-Jun-18 19:00N 09°23' W 079°53'0 0.0
2018-Jun-18 18:30N 09°23' W 079°53'0 0.0
2018-Jun-18 18:00N 09°23' W 079°53'0 0.0
2018-Jun-18 17:30N 09°23' W 079°53'0 0.0
2018-Jun-18 17:00N 09°23' W 079°53'0 0.0
2018-Jun-18 16:30N 09°23' W 079°53'0 0.0
2018-Jun-18 16:00N 09°23' W 079°53'0 0.0
2018-Jun-18 15:30N 09°23' W 079°53'0 0.0
2018-Jun-18 15:00N 09°23' W 079°53'0 0.0
2018-Jun-18 14:30N 09°23' W 079°53'0 0.4
2018-Jun-18 14:00N 09°22' W 079°53'0 0.4
2018-Jun-18 13:30N 09°23' W 079°53'0 0.0
2018-Jun-18 13:00N 09°23' W 079°53'0 0.0
2018-Jun-18 12:29N 09°23' W 079°53'0 0.0
2018-Jun-18 12:00N 09°23' W 079°53'0 0.9
2018-Jun-18 11:30N 09°22' W 079°53'0 1.0
2018-Jun-18 11:00N 09°23' W 079°53'0 0.0
2018-Jun-18 10:30N 09°23' W 079°53'0 0.0
2018-Jun-18 10:00N 09°23' W 079°53'0 0.0
2018-Jun-18 09:30N 09°23' W 079°53'0 0.0
2018-Jun-18 09:00N 09°23' W 079°53'0 0.0
2018-Jun-18 08:29N 09°23' W 079°53'0 0.0
2018-Jun-18 08:00N 09°23' W 079°53'0 0.0
2018-Jun-18 07:30N 09°23' W 079°53'0 0.0
2018-Jun-18 07:00N 09°23' W 079°53'0 0.0
2018-Jun-18 06:30N 09°23' W 079°53'0 0.0
2018-Jun-18 06:00N 09°23' W 079°53'0 0.0
2018-Jun-18 05:30N 09°23' W 079°53'0 0.0
2018-Jun-18 05:00N 09°23' W 079°53'0 0.0
2018-Jun-18 04:30N 09°23' W 079°53'4 2.4
2018-Jun-18 02:39N 09°24' W 079°49'1 3.2
2018-Jun-18 02:21N 09°25' W 079°50'0 0.3
2018-Jun-18 01:48N 09°25' W 079°50'3 8.6
2018-Jun-18 01:30N 09°25' W 079°52'3 5.9
2018-Jun-18 01:00N 09°23' W 079°53'0 0.0
2018-Jun-18 00:30N 09°23' W 079°53'0 0.0
2018-Jun-18 00:00N 09°23' W 079°53'0 0.0
2018-Jun-17 23:30N 09°23' W 079°53'0 0.2
2018-Jun-17 23:00N 09°23' W 079°53'0 0.5
2018-Jun-17 22:30N 09°22' W 079°54'0 0.6
2018-Jun-17 22:00N 09°23' W 079°53'0 0.0
2018-Jun-17 21:30N 09°23' W 079°53'0 0.0
2018-Jun-17 21:00N 09°23' W 079°53'0 0.0
2018-Jun-17 20:30N 09°23' W 079°53'0 0.0
2018-Jun-17 20:00N 09°23' W 079°53'0 0.0
2018-Jun-17 19:30N 09°23' W 079°53'0 0.0
2018-Jun-17 19:00N 09°23' W 079°53'0 0.5
2018-Jun-17 18:30N 09°22' W 079°53'0 0.5
2018-Jun-17 18:00N 09°23' W 079°53'1 1.3
2018-Jun-17 17:30N 09°23' W 079°54'5 2.9
2018-Jun-17 15:54N 09°24' W 079°49'3 8.4
2018-Jun-17 15:30N 09°26' W 079°52'3 6.4
2018-Jun-17 15:00N 09°23' W 079°53'0 0.0
2018-Jun-17 14:30N 09°23' W 079°53'0 0.0
2018-Jun-17 14:00N 09°23' W 079°53'0 0.0
2018-Jun-17 13:30N 09°23' W 079°53'0 0.0
2018-Jun-17 13:00N 09°23' W 079°53'0 0.0
2018-Jun-17 12:30N 09°23' W 079°53'0 0.0
2018-Jun-17 11:59N 09°23' W 079°53'0 0.0
2018-Jun-17 11:30N 09°23' W 079°53'0 0.0
2018-Jun-17 11:00N 09°23' W 079°53'0 0.0
2018-Jun-17 10:30N 09°23' W 079°53'0 0.0
2018-Jun-17 10:00N 09°23' W 079°53'0 0.0
2018-Jun-17 09:30N 09°23' W 079°53'0 0.0
2018-Jun-17 09:00N 09°23' W 079°53'0 0.0
2018-Jun-17 08:30N 09°23' W 079°53'0 0.0
2018-Jun-17 08:00N 09°23' W 079°53'0 0.0
2018-Jun-17 07:30N 09°23' W 079°53'0 0.0
2018-Jun-17 06:59N 09°23' W 079°53'0 0.0
2018-Jun-17 06:30N 09°23' W 079°53'0 0.0
2018-Jun-17 06:00N 09°23' W 079°53'0 0.0
2018-Jun-17 05:30N 09°23' W 079°53'0 0.0
2018-Jun-17 05:00N 09°23' W 079°53'0 0.0
2018-Jun-17 04:30N 09°23' W 079°53'0 0.0
2018-Jun-17 04:00N 09°23' W 079°53'0 0.0
2018-Jun-17 03:30N 09°23' W 079°53'0 0.0
2018-Jun-17 03:00N 09°23' W 079°53'1 1.0
2018-Jun-17 02:29N 09°22' W 079°53'1 1.1
2018-Jun-17 02:00N 09°23' W 079°53'0 0.0
2018-Jun-17 01:30N 09°23' W 079°53'0 0.0
2018-Jun-17 01:00N 09°23' W 079°53'0 0.0
2018-Jun-17 00:30N 09°23' W 079°53'0 0.0
2018-Jun-17 00:00N 09°23' W 079°53'0 0.0
2018-Jun-16 23:30N 09°23' W 079°53'0 0.0
2018-Jun-16 23:00N 09°23' W 079°53'0 0.0
2018-Jun-16 22:30N 09°23' W 079°53'0 0.0
2018-Jun-16 22:00N 09°23' W 079°53'0 0.0
2018-Jun-16 21:30N 09°23' W 079°53'0 0.0
2018-Jun-16 21:00N 09°23' W 079°53'0 0.0
2018-Jun-16 20:30N 09°23' W 079°53'0 0.0
2018-Jun-16 19:59N 09°23' W 079°53'0 0.0
2018-Jun-16 19:30N 09°23' W 079°53'0 0.0
2018-Jun-16 19:00N 09°23' W 079°53'0 0.0
2018-Jun-16 18:30N 09°23' W 079°53'0 0.0
2018-Jun-16 18:00N 09°23' W 079°53'0 0.0
2018-Jun-16 17:30N 09°23' W 079°53'0 0.0
2018-Jun-16 17:00N 09°23' W 079°53'0 0.0
2018-Jun-16 16:30N 09°23' W 079°53'0 0.0
2018-Jun-16 16:00N 09°23' W 079°53'0 0.0
2018-Jun-16 15:30N 09°23' W 079°53'0 0.0
2018-Jun-16 15:00N 09°23' W 079°53'0 0.0
2018-Jun-16 14:30N 09°23' W 079°53'2 3.6
2018-Jun-16 14:00N 09°24' W 079°54'4 8.0
2018-Jun-16 13:30N 09°25' W 079°49'1 2.1
2018-Jun-16 12:59N 09°24' W 079°49'0 0.0
2018-Jun-16 12:24N 09°24' W 079°49'0 0.0
2018-Jun-16 11:57N 09°24' W 079°49'1 1.3
2018-Jun-16 11:30N 09°24' W 079°49'1 2.6
2018-Jun-16 11:00N 09°25' W 079°50'0 0.1
2018-Jun-16 10:31N 09°25' W 079°50'3 5.2
2018-Jun-16 10:00N 09°25' W 079°53'3 5.7
2018-Jun-16 09:30N 09°23' W 079°53'0 0.0
2018-Jun-16 09:00N 09°23' W 079°53'0 0.0
2018-Jun-16 08:30N 09°23' W 079°53'0 0.0
2018-Jun-16 08:00N 09°23' W 079°53'0 0.0
2018-Jun-16 07:30N 09°23' W 079°53'0 0.0
2018-Jun-16 07:00N 09°23' W 079°53'0 0.0
2018-Jun-16 06:30N 09°23' W 079°53'0 0.0
2018-Jun-16 06:00N 09°23' W 079°53'0 0.0
2018-Jun-16 05:30N 09°23' W 079°53'0 0.6
2018-Jun-16 04:59N 09°22' W 079°53'0 0.6
2018-Jun-16 04:28N 09°23' W 079°53'0 0.0
2018-Jun-16 03:58N 09°23' W 079°53'0 0.0
2018-Jun-16 03:28N 09°23' W 079°53'0 0.0
2018-Jun-16 02:58N 09°23' W 079°53'0 0.0
2018-Jun-16 02:28N 09°23' W 079°53'0 0.0
2018-Jun-16 01:58N 09°23' W 079°53'0 0.0
2018-Jun-16 01:28N 09°23' W 079°53'0 0.0
2018-Jun-16 00:58N 09°23' W 079°53'0 0.0
2018-Jun-16 00:28N 09°23' W 079°53'0 0.0
2018-Jun-15 23:58N 09°23' W 079°53'0 0.0
2018-Jun-15 23:28N 09°23' W 079°53'0 0.0
2018-Jun-15 22:58N 09°23' W 079°53'0 0.0
2018-Jun-15 22:28N 09°23' W 079°53'0 0.0
2018-Jun-15 21:58N 09°23' W 079°53'0 0.0
2018-Jun-15 21:28N 09°23' W 079°53'0 0.0
2018-Jun-15 20:58N 09°23' W 079°53'0 0.0
2018-Jun-15 20:28N 09°23' W 079°53'0 0.0
2018-Jun-15 19:58N 09°23' W 079°53'0 0.0
2018-Jun-15 19:28N 09°23' W 079°53'0 0.0
2018-Jun-15 18:58N 09°23' W 079°53'0 0.0
2018-Jun-15 18:28N 09°23' W 079°53'0 0.0
2018-Jun-15 17:58N 09°23' W 079°53'0 0.0
2018-Jun-15 17:28N 09°23' W 079°53'0 0.0
2018-Jun-15 16:58N 09°23' W 079°53'0 0.0
2018-Jun-15 16:28N 09°23' W 079°53'0 0.0
2018-Jun-15 15:58N 09°23' W 079°53'0 0.0
2018-Jun-15 15:28N 09°23' W 079°53'0 0.0
2018-Jun-15 14:58N 09°23' W 079°53'0 0.0
2018-Jun-15 14:28N 09°23' W 079°53'0 0.0
2018-Jun-15 13:58N 09°23' W 079°53'0 0.0
2018-Jun-15 13:28N 09°23' W 079°53'0 0.0
2018-Jun-15 12:58N 09°23' W 079°53'0 0.0
2018-Jun-15 12:28N 09°23' W 079°53'0 0.0
2018-Jun-15 11:58N 09°23' W 079°53'0 0.0
2018-Jun-15 11:28N 09°23' W 079°53'0 0.0
2018-Jun-15 10:58N 09°23' W 079°53'0 0.0
2018-Jun-15 10:28N 09°23' W 079°53'0 0.0
2018-Jun-15 09:58N 09°23' W 079°53'0 0.0
2018-Jun-15 09:28N 09°23' W 079°53'0 0.0
2018-Jun-15 08:58N 09°23' W 079°53'0 0.0
2018-Jun-15 08:28N 09°23' W 079°53'0 0.0
2018-Jun-15 07:58N 09°23' W 079°53'0 0.0
2018-Jun-15 07:28N 09°23' W 079°53'0 0.0
2018-Jun-15 06:58N 09°23' W 079°53'0 0.0
2018-Jun-15 06:25N 09°23' W 079°53'0 0.0
2018-Jun-15 05:58N 09°23' W 079°53'0 0.0
2018-Jun-15 05:28N 09°23' W 079°53'0 0.0
2018-Jun-15 04:58N 09°23' W 079°53'0 0.0
2018-Jun-15 04:28N 09°23' W 079°53'0 0.0
2018-Jun-15 03:58N 09°23' W 079°53'0 0.0
2018-Jun-15 03:26N 09°23' W 079°53'3 6.8
2018-Jun-15 03:00N 09°25' W 079°53'4 2.9
2018-Jun-15 01:42N 09°24' W 079°49'1 5.2
2018-Jun-15 01:25N 09°25' W 079°50'0 0.4
2018-Jun-15 00:57N 09°25' W 079°50'0 0.2
2018-Jun-15 00:28N 09°25' W 079°50'1 2.7
2018-Jun-15 00:00N 09°25' W 079°51'4 7.9
2018-Jun-14 23:30N 09°23' W 079°54'0 0.5
2018-Jun-14 22:58N 09°23' W 079°53'0 0.0
2018-Jun-14 22:28N 09°23' W 079°53'0 0.0
2018-Jun-14 21:58N 09°23' W 079°53'0 0.3
2018-Jun-14 21:30N 09°22' W 079°53'0 0.9
2018-Jun-14 21:00N 09°23' W 079°54'0 0.7
2018-Jun-14 20:30N 09°23' W 079°53'0 0.0
2018-Jun-14 20:00N 09°23' W 079°53'0 0.0
2018-Jun-14 19:30N 09°23' W 079°53'0 0.0
2018-Jun-14 19:00N 09°23' W 079°53'0 0.0
2018-Jun-14 18:31N 09°23' W 079°53'4 7.3
2018-Jun-14 18:00N 09°26' W 079°51'3 5.0
2018-Jun-14 17:25N 09°24' W 079°49'0 0.9
2018-Jun-14 16:59N 09°24' W 079°49'4 7.6
2018-Jun-14 16:30N 09°25' W 079°53'3 5.2
2018-Jun-14 15:58N 09°23' W 079°53'0 0.7
2018-Jun-14 15:28N 09°22' W 079°54'0 0.4
2018-Jun-14 14:59N 09°22' W 079°53'0 0.4
2018-Jun-14 14:29N 09°23' W 079°53'0 0.0
2018-Jun-14 13:59N 09°23' W 079°53'0 0.0
2018-Jun-14 13:29N 09°23' W 079°53'0 0.0
2018-Jun-14 12:58N 09°23' W 079°53'0 0.0
2018-Jun-14 12:29N 09°23' W 079°53'1 1.0
2018-Jun-14 11:59N 09°22' W 079°53'0 0.1
2018-Jun-14 11:29N 09°22' W 079°53'0 0.6
2018-Jun-14 11:00N 09°22' W 079°53'1 1.1
2018-Jun-14 10:30N 09°23' W 079°53'0 0.0
2018-Jun-14 10:00N 09°23' W 079°53'0 0.0
2018-Jun-14 09:30N 09°23' W 079°53'0 0.0
2018-Jun-14 09:00N 09°23' W 079°53'0 0.0
2018-Jun-14 08:30N 09°23' W 079°53'0 0.0
2018-Jun-14 08:00N 09°23' W 079°53'0 0.0
2018-Jun-14 07:30N 09°23' W 079°53'0 0.0
2018-Jun-14 07:00N 09°23' W 079°53'0 0.0
2018-Jun-14 06:30N 09°23' W 079°53'0 0.0
2018-Jun-14 06:00N 09°23' W 079°53'0 0.0
2018-Jun-14 05:30N 09°23' W 079°53'0 0.0
2018-Jun-14 05:00N 09°23' W 079°53'0 0.0
2018-Jun-14 04:30N 09°23' W 079°53'0 0.0
2018-Jun-14 04:00N 09°23' W 079°53'0 0.0
2018-Jun-14 03:30N 09°23' W 079°53'0 0.0
2018-Jun-14 03:00N 09°23' W 079°53'0 0.0
2018-Jun-14 02:30N 09°23' W 079°53'0 0.0
2018-Jun-14 02:00N 09°23' W 079°53'0 0.0
2018-Jun-14 01:30N 09°23' W 079°53'0 0.0
2018-Jun-14 01:00N 09°23' W 079°53'0 0.0
2018-Jun-14 00:30N 09°23' W 079°53'0 0.0
2018-Jun-14 00:00N 09°23' W 079°53'0 0.0
2018-Jun-13 23:30N 09°23' W 079°53'2 3.4
2018-Jun-13 23:00N 09°24' W 079°54'2 3.8
2018-Jun-13 22:30N 09°22' W 079°53'0 0.5
2018-Jun-13 22:00N 09°22' W 079°54'0 0.5
2018-Jun-13 21:30N 09°23' W 079°54'0 0.5
2018-Jun-13 21:00N 09°23' W 079°53'5 9.5
2018-Jun-13 20:30N 09°27' W 079°52'5 9.4
2018-Jun-13 20:01N 09°23' W 079°54'1 2.3
2018-Jun-13 19:30N 09°22' W 079°54'0 0.0
2018-Jun-13 19:00N 09°22' W 079°54'0 0.0
2018-Jun-13 18:30N 09°22' W 079°54'0 0.0
2018-Jun-13 18:00N 09°22' W 079°54'0 0.0
2018-Jun-13 17:30N 09°22' W 079°54'0 0.0
2018-Jun-13 17:00N 09°22' W 079°54'1 1.8
2018-Jun-13 16:30N 09°23' W 079°54'0 0.2
2018-Jun-13 15:58N 09°23' W 079°53'0 0.0
2018-Jun-13 15:28N 09°23' W 079°53'0 0.0
2018-Jun-13 14:58N 09°23' W 079°53'0 0.0
2018-Jun-13 14:28N 09°23' W 079°53'0 0.0
2018-Jun-13 13:58N 09°23' W 079°53'0 0.6
2018-Jun-13 13:30N 09°23' W 079°54'0 0.5
2018-Jun-13 12:58N 09°23' W 079°53'0 0.0
2018-Jun-13 12:28N 09°23' W 079°53'0 0.0
2018-Jun-13 11:58N 09°23' W 079°53'0 0.0
2018-Jun-13 11:28N 09°23' W 079°53'0 0.0
2018-Jun-13 10:58N 09°23' W 079°53'0 0.0
2018-Jun-13 10:28N 09°23' W 079°53'0 0.0
2018-Jun-13 09:58N 09°23' W 079°53'0 0.0
2018-Jun-13 09:28N 09°23' W 079°53'0 0.0
2018-Jun-13 08:58N 09°23' W 079°53'0 0.0
2018-Jun-13 08:28N 09°23' W 079°53'0 0.0
2018-Jun-13 07:58N 09°23' W 079°53'0 0.0
2018-Jun-13 07:28N 09°23' W 079°53'0 0.0
2018-Jun-13 06:58N 09°23' W 079°53'0 0.0
2018-Jun-13 06:28N 09°23' W 079°53'  

Dump ship's entire track history